createdAt,value
2022-10-12T00:03:38.835Z,15.60
2022-10-12T00:08:23.843Z,14.45
2022-10-12T00:13:12.287Z,14.73
2022-10-12T00:17:57.319Z,14.13
2022-10-12T00:22:42.609Z,14.35
2022-10-12T00:27:27.666Z,15.60
2022-10-12T00:32:15.574Z,14.27
2022-10-12T00:37:00.630Z,15.48
2022-10-12T00:41:47.456Z,15.35
2022-10-12T00:46:36.069Z,15.40
2022-10-12T00:51:25.641Z,14.77
2022-10-12T00:56:16.890Z,15.43
2022-10-12T01:01:07.215Z,14.70
2022-10-12T01:05:52.546Z,15.50
2022-10-12T01:10:40.541Z,14.90
2022-10-12T01:15:29.459Z,14.02
2022-10-12T01:20:44.190Z,16.00
2022-10-12T01:25:51.644Z,15.15
2022-10-12T01:30:43.999Z,16.15
2022-10-12T01:35:37.405Z,15.60
2022-10-12T01:40:30.102Z,16.23
2022-10-12T01:45:17.252Z,14.45
2022-10-12T01:50:07.530Z,14.65
2022-10-12T01:55:20.165Z,16.13
2022-10-12T02:00:10.342Z,16.98
2022-10-12T02:05:02.431Z,16.35
2022-10-12T02:09:51.040Z,14.43
2022-10-12T02:14:42.001Z,15.57
2022-10-12T02:19:30.805Z,14.97
2022-10-12T02:24:18.169Z,14.27
2022-10-12T02:29:09.408Z,13.80
2022-10-12T02:34:03.660Z,14.50
2022-10-12T02:38:55.734Z,14.52
2022-10-12T02:43:43.242Z,14.68
2022-10-12T02:48:32.933Z,15.05
2022-10-12T02:53:18.534Z,15.40
2022-10-12T02:58:04.054Z,15.80
2022-10-12T03:02:49.108Z,14.65
2022-10-12T03:07:37.304Z,16.35
2022-10-12T03:12:22.606Z,14.68
2022-10-12T03:17:07.998Z,13.13
2022-10-12T03:21:53.014Z,13.60
2022-10-12T03:26:41.024Z,12.80
2022-10-12T03:31:26.090Z,13.43
2022-10-12T03:36:12.704Z,13.43
2022-10-12T03:40:59.909Z,13.40
2022-10-12T03:45:49.889Z,12.13
2022-10-12T03:50:35.985Z,13.05
2022-10-12T03:55:21.295Z,12.82
2022-10-12T04:00:07.048Z,12.63
2022-10-12T04:04:55.456Z,14.35
2022-10-12T04:09:40.537Z,18.92
2022-10-12T04:14:25.931Z,19.80
2022-10-12T04:19:15.047Z,18.67
2022-10-12T04:24:02.991Z,16.58
2022-10-12T04:28:48.104Z,13.80
2022-10-12T04:33:33.470Z,13.32
2022-10-12T04:38:18.534Z,14.05
2022-10-12T04:43:06.467Z,13.48
2022-10-12T04:47:51.511Z,14.07
2022-10-12T04:52:36.924Z,13.80
2022-10-12T04:57:21.931Z,15.63
2022-10-12T05:02:09.919Z,16.38
2022-10-12T05:06:54.967Z,15.98
2022-10-12T05:11:40.278Z,16.13
2022-10-12T05:16:26.046Z,15.55
2022-10-12T05:21:14.108Z,13.40
2022-10-12T05:25:59.356Z,12.68
2022-10-12T05:30:44.678Z,11.50
2022-10-12T05:35:29.772Z,11.55
2022-10-12T05:40:17.891Z,11.82
2022-10-12T05:45:07.578Z,12.32
2022-10-12T05:49:54.269Z,12.95
2022-10-12T05:54:39.397Z,12.60
2022-10-12T05:59:27.321Z,14.40
2022-10-12T06:04:14.572Z,13.50
2022-10-12T06:08:59.996Z,11.77
2022-10-12T06:13:45.118Z,11.40
2022-10-12T06:18:33.123Z,11.75
2022-10-12T06:23:18.295Z,11.20
2022-10-12T06:28:03.587Z,11.38
2022-10-12T06:32:48.652Z,11.73
2022-10-12T06:37:51.531Z,12.43
2022-10-12T06:42:37.079Z,11.55
2022-10-12T06:47:22.370Z,15.85
2022-10-12T06:52:08.009Z,15.18
2022-10-12T06:56:58.741Z,15.95
2022-10-12T07:01:44.353Z,16.00
2022-10-12T07:06:29.464Z,14.85
2022-10-12T07:11:16.047Z,24.88
2022-10-12T07:16:04.179Z,19.27
2022-10-12T07:20:49.507Z,18.80
2022-10-12T07:25:34.998Z,17.48
2022-10-12T07:30:20.465Z,16.98
2022-10-12T07:35:08.990Z,18.13
2022-10-12T07:39:57.446Z,17.63
2022-10-12T07:44:42.762Z,19.15
2022-10-12T07:49:28.117Z,19.02
2022-10-12T07:54:20.413Z,18.48
2022-10-12T07:59:07.422Z,19.65
2022-10-12T08:03:56.303Z,20.05
2022-10-12T08:08:44.553Z,18.70
2022-10-12T08:13:32.269Z,20.88
2022-10-12T08:18:17.563Z,19.33
2022-10-12T08:23:02.573Z,18.55
2022-10-12T08:27:47.963Z,18.58
2022-10-12T08:32:37.231Z,17.92
2022-10-12T08:37:22.571Z,16.90
2022-10-12T08:42:20.054Z,17.85
2022-10-12T08:47:09.862Z,16.90
2022-10-12T08:51:59.671Z,15.57
2022-10-12T08:56:45.143Z,15.23
2022-10-12T09:01:37.534Z,13.60
2022-10-12T09:06:27.491Z,13.30
2022-10-12T09:11:27.892Z,11.85
2022-10-12T09:16:23.782Z,13.18
2022-10-12T09:21:11.754Z,11.85
2022-10-12T09:25:59.797Z,11.48
2022-10-12T09:31:02.508Z,10.67
2022-10-12T09:35:51.223Z,11.18
2022-10-12T09:40:36.716Z,11.05
2022-10-12T09:45:24.278Z,9.52
2022-10-12T09:50:12.133Z,9.65
2022-10-12T09:55:03.764Z,9.55
2022-10-12T09:59:51.364Z,10.15
2022-10-12T10:04:37.121Z,9.02
2022-10-12T10:09:36.631Z,8.43
2022-10-12T10:14:22.343Z,8.23
2022-10-12T10:19:07.453Z,7.53
2022-10-12T10:23:56.428Z,7.35
2022-10-12T10:28:45.430Z,7.25
2022-10-12T10:33:31.259Z,6.00
2022-10-12T10:38:18.934Z,6.35
2022-10-12T10:43:06.927Z,6.35
2022-10-12T10:48:01.488Z,5.82
2022-10-12T10:52:53.886Z,6.30
2022-10-12T10:57:42.362Z,6.70
2022-10-12T11:02:34.699Z,6.72
2022-10-12T11:07:27.642Z,6.88
2022-10-12T11:12:19.378Z,6.65
2022-10-12T11:17:07.519Z,7.00
2022-10-12T11:21:57.113Z,6.50
2022-10-12T11:26:50.749Z,6.20
2022-10-12T11:31:40.494Z,5.50
2022-10-12T11:36:29.140Z,6.20
2022-10-12T11:41:35.013Z,6.90
2022-10-12T11:46:33.758Z,6.20
2022-10-12T11:51:18.786Z,6.63
2022-10-12T11:56:10.039Z,7.30
2022-10-12T12:01:10.211Z,6.20
2022-10-12T12:05:58.328Z,6.35
2022-10-12T12:11:04.432Z,6.80
2022-10-12T12:16:36.795Z,7.15
2022-10-12T12:21:24.809Z,6.18
2022-10-12T12:26:18.593Z,7.00
2022-10-12T12:31:07.190Z,6.60
2022-10-12T12:35:58.208Z,6.07
2022-10-12T12:40:58.551Z,5.18
2022-10-12T12:45:56.561Z,5.45
2022-10-12T12:50:43.140Z,5.28
2022-10-12T12:55:52.797Z,5.50
2022-10-12T13:00:51.347Z,5.82
2022-10-12T13:06:15.877Z,4.88
2022-10-12T13:11:19.791Z,4.97
2022-10-12T13:16:57.219Z,5.72
2022-10-12T13:21:27.620Z,5.82
2022-10-12T13:26:13.847Z,5.97
2022-10-12T13:31:04.817Z,5.03
2022-10-12T13:35:59.043Z,4.10
2022-10-12T13:40:47.781Z,4.32
2022-10-12T13:45:32.856Z,4.65
2022-10-12T13:50:22.873Z,4.72
2022-10-12T13:55:19.001Z,4.65
2022-10-12T14:00:11.884Z,4.90
2022-10-12T14:04:58.500Z,4.70
2022-10-12T14:09:47.400Z,4.80
2022-10-12T14:14:39.014Z,4.70
2022-10-12T14:19:38.355Z,4.38
2022-10-12T14:24:23.474Z,3.70
2022-10-12T14:29:31.345Z,3.60
2022-10-12T14:34:42.522Z,3.85
2022-10-12T14:39:30.062Z,3.38
2022-10-12T14:44:17.733Z,3.58
2022-10-12T14:49:03.203Z,4.18
2022-10-12T14:54:01.411Z,3.30
2022-10-12T14:58:47.555Z,2.95
2022-10-12T15:03:33.877Z,3.55
2022-10-12T15:08:19.249Z,3.50
2022-10-12T15:13:07.002Z,3.92
2022-10-12T15:17:52.445Z,3.95
2022-10-12T15:22:37.600Z,3.72
2022-10-12T15:27:23.548Z,3.45
2022-10-12T15:32:13.331Z,5.65
2022-10-12T15:36:58.699Z,3.72
2022-10-12T15:41:43.851Z,3.72
2022-10-12T15:46:29.757Z,4.00
2022-10-12T15:51:22.874Z,3.90
2022-10-12T15:56:15.011Z,4.10
2022-10-12T16:01:00.669Z,4.97
2022-10-12T16:05:46.396Z,4.13
2022-10-12T16:10:36.974Z,4.47
2022-10-12T16:15:24.791Z,4.38
2022-10-12T16:20:11.806Z,4.50
2022-10-12T16:24:57.159Z,4.20
2022-10-12T16:29:44.846Z,5.15
2022-10-12T16:34:33.162Z,4.78
2022-10-12T16:39:18.291Z,5.03
2022-10-12T16:44:04.782Z,4.80
2022-10-12T16:48:52.693Z,4.63
2022-10-12T16:53:38.123Z,4.72
2022-10-12T16:58:23.294Z,5.93
2022-10-12T17:03:08.847Z,5.72
2022-10-12T17:07:56.514Z,5.05
2022-10-12T17:12:41.968Z,5.68
2022-10-12T17:17:26.999Z,5.20
2022-10-12T17:22:14.806Z,5.25
2022-10-12T17:27:03.136Z,5.38
2022-10-12T17:31:49.363Z,5.43
2022-10-12T17:36:34.708Z,6.07
2022-10-12T17:41:20.204Z,5.80
2022-10-12T17:46:07.980Z,6.57
2022-10-12T17:50:53.476Z,5.80
2022-10-12T17:55:58.848Z,5.50
2022-10-12T18:00:44.470Z,5.75
2022-10-12T18:05:32.354Z,5.90
2022-10-12T18:10:17.849Z,6.40
2022-10-12T18:15:03.388Z,6.07
2022-10-12T18:19:48.903Z,6.10
2022-10-12T18:24:36.628Z,6.43
2022-10-12T18:29:21.979Z,6.22
2022-10-12T18:34:07.255Z,6.43
2022-10-12T18:38:52.988Z,6.18
2022-10-12T18:43:41.029Z,6.95
2022-10-12T18:48:28.898Z,6.32
2022-10-12T18:53:13.995Z,6.97
2022-10-12T18:57:59.403Z,6.90
2022-10-12T19:02:47.125Z,6.60
2022-10-12T19:07:35.602Z,7.03
2022-10-12T19:12:21.552Z,7.13
2022-10-12T19:17:06.956Z,7.43
2022-10-12T19:21:55.388Z,12.52
2022-10-12T19:26:40.977Z,7.93
2022-10-12T19:31:28.618Z,7.47
2022-10-12T19:36:15.883Z,7.60
2022-10-12T19:41:03.502Z,7.85
2022-10-12T19:45:50.204Z,8.13
2022-10-12T19:50:35.383Z,8.52
2022-10-12T19:55:20.684Z,8.73
2022-10-12T20:00:09.789Z,7.75
2022-10-12T20:04:55.493Z,6.93
2022-10-12T20:09:40.551Z,7.85
2022-10-12T20:14:25.854Z,8.65
2022-10-12T20:19:13.745Z,8.60
2022-10-12T20:23:59.152Z,8.75
2022-10-12T20:28:44.459Z,10.48
2022-10-12T20:33:29.895Z,8.73
2022-10-12T20:38:17.565Z,8.65
2022-10-12T20:43:02.880Z,9.40
2022-10-12T20:47:48.166Z,8.77
2022-10-12T20:52:34.012Z,8.75
2022-10-12T20:57:21.812Z,8.57
2022-10-12T21:02:07.630Z,8.95
2022-10-12T21:06:53.348Z,8.05
2022-10-12T21:11:38.702Z,7.78
2022-10-12T21:16:27.312Z,9.27
2022-10-12T21:21:14.870Z,8.63
2022-10-12T21:26:00.009Z,7.90
2022-10-12T21:30:46.420Z,10.18
2022-10-12T21:35:35.474Z,8.75
2022-10-12T21:40:20.771Z,12.20
2022-10-12T21:45:05.907Z,8.85
2022-10-12T21:49:51.220Z,8.48
2022-10-12T21:54:40.427Z,12.80
2022-10-12T21:59:25.768Z,8.60
2022-10-12T22:04:15.216Z,9.60
2022-10-12T22:09:02.567Z,8.38
2022-10-12T22:13:51.139Z,8.40
2022-10-12T22:18:36.635Z,8.15
2022-10-12T22:23:21.653Z,8.45
2022-10-12T22:28:07.067Z,8.52
2022-10-12T22:32:54.724Z,7.70
2022-10-12T22:37:40.646Z,7.88
2022-10-12T22:42:25.798Z,8.02
2022-10-12T22:47:11.331Z,8.85
2022-10-12T22:51:58.978Z,8.70
2022-10-12T22:56:44.409Z,8.13
2022-10-12T23:01:30.847Z,9.07
2022-10-12T23:06:18.316Z,9.07
2022-10-12T23:11:08.928Z,10.10
2022-10-12T23:15:54.423Z,9.77
2022-10-12T23:20:42.466Z,9.63
2022-10-12T23:25:29.649Z,8.18
2022-10-12T23:30:17.624Z,8.45
2022-10-12T23:35:02.934Z,8.82
2022-10-12T23:39:48.013Z,8.88
2022-10-12T23:44:33.307Z,9.00
2022-10-12T23:49:21.202Z,8.73
2022-10-12T23:54:06.895Z,8.85
2022-10-12T23:58:51.950Z,8.05
